sensor_id;sensor_type;location;lat;lon;timestamp;P1;durP1;ratioP1;P2;durP2;ratioP2
56269;SDS011;42176;43.240;27.880;2022-09-02T00:01:25;4.80;;;3.55;;
56269;SDS011;42176;43.240;27.880;2022-09-02T00:03:59;8.05;;;3.40;;
56269;SDS011;42176;43.240;27.880;2022-09-02T00:06:27;6.35;;;3.80;;
56269;SDS011;42176;43.240;27.880;2022-09-02T00:08:54;6.85;;;3.65;;
56269;SDS011;42176;43.240;27.880;2022-09-02T00:11:21;6.53;;;3.30;;
56269;SDS011;42176;43.240;27.880;2022-09-02T00:13:49;6.75;;;3.42;;
56269;SDS011;42176;43.240;27.880;2022-09-02T00:16:15;7.03;;;3.13;;
56269;SDS011;42176;43.240;27.880;2022-09-02T00:18:41;5.45;;;3.50;;
56269;SDS011;42176;43.240;27.880;2022-09-02T00:21:08;6.97;;;3.65;;
56269;SDS011;42176;43.240;27.880;2022-09-02T00:23:36;5.22;;;3.53;;
56269;SDS011;42176;43.240;27.880;2022-09-02T00:26:03;7.05;;;4.03;;
56269;SDS011;42176;43.240;27.880;2022-09-02T00:28:28;16.65;;;4.40;;
56269;SDS011;42176;43.240;27.880;2022-09-02T00:30:54;5.32;;;3.72;;
56269;SDS011;42176;43.240;27.880;2022-09-02T00:33:19;10.05;;;3.60;;
56269;SDS011;42176;43.240;27.880;2022-09-02T00:35:45;5.35;;;3.65;;
56269;SDS011;42176;43.240;27.880;2022-09-02T00:38:11;4.95;;;3.35;;
56269;SDS011;42176;43.240;27.880;2022-09-02T00:40:37;6.38;;;3.30;;
56269;SDS011;42176;43.240;27.880;2022-09-02T00:43:07;5.43;;;3.97;;
56269;SDS011;42176;43.240;27.880;2022-09-02T00:45:33;9.85;;;3.95;;
56269;SDS011;42176;43.240;27.880;2022-09-02T00:47:59;8.80;;;4.15;;
56269;SDS011;42176;43.240;27.880;2022-09-02T00:50:26;6.57;;;3.58;;
56269;SDS011;42176;43.240;27.880;2022-09-02T00:52:58;4.43;;;3.40;;
56269;SDS011;42176;43.240;27.880;2022-09-02T00:55:32;5.90;;;3.50;;
56269;SDS011;42176;43.240;27.880;2022-09-02T00:58:06;12.30;;;3.53;;
56269;SDS011;42176;43.240;27.880;2022-09-02T01:00:37;9.73;;;3.35;;
56269;SDS011;42176;43.240;27.880;2022-09-02T01:03:09;4.28;;;3.05;;
56269;SDS011;42176;43.240;27.880;2022-09-02T01:05:38;6.88;;;3.65;;
56269;SDS011;42176;43.240;27.880;2022-09-02T01:08:08;6.03;;;3.17;;
56269;SDS011;42176;43.240;27.880;2022-09-02T01:10:34;5.93;;;3.55;;
56269;SDS011;42176;43.240;27.880;2022-09-02T01:13:01;6.28;;;4.00;;
56269;SDS011;42176;43.240;27.880;2022-09-02T01:15:33;5.05;;;3.85;;
56269;SDS011;42176;43.240;27.880;2022-09-02T01:18:03;3.70;;;2.85;;
56269;SDS011;42176;43.240;27.880;2022-09-02T01:20:31;3.30;;;2.75;;
56269;SDS011;42176;43.240;27.880;2022-09-02T01:22:58;6.88;;;3.67;;
56269;SDS011;42176;43.240;27.880;2022-09-02T01:25:26;5.30;;;3.97;;
56269;SDS011;42176;43.240;27.880;2022-09-02T01:28:02;4.93;;;3.30;;
56269;SDS011;42176;43.240;27.880;2022-09-02T01:30:35;9.50;;;3.78;;
56269;SDS011;42176;43.240;27.880;2022-09-02T01:33:03;7.05;;;3.10;;
56269;SDS011;42176;43.240;27.880;2022-09-02T01:35:29;4.50;;;3.35;;
56269;SDS011;42176;43.240;27.880;2022-09-02T01:37:55;6.78;;;3.40;;
56269;SDS011;42176;43.240;27.880;2022-09-02T01:40:22;6.25;;;3.65;;
56269;SDS011;42176;43.240;27.880;2022-09-02T01:42:52;4.95;;;3.50;;
56269;SDS011;42176;43.240;27.880;2022-09-02T01:45:19;7.32;;;3.30;;
56269;SDS011;42176;43.240;27.880;2022-09-02T01:47:46;7.40;;;3.70;;
56269;SDS011;42176;43.240;27.880;2022-09-02T01:50:11;4.90;;;3.30;;
56269;SDS011;42176;43.240;27.880;2022-09-02T01:52:37;6.18;;;3.22;;
56269;SDS011;42176;43.240;27.880;2022-09-02T01:55:03;4.75;;;3.45;;
56269;SDS011;42176;43.240;27.880;2022-09-02T01:57:28;3.92;;;2.42;;
56269;SDS011;42176;43.240;27.880;2022-09-02T01:59:54;4.60;;;3.00;;
56269;SDS011;42176;43.240;27.880;2022-09-02T02:02:20;5.53;;;3.22;;
56269;SDS011;42176;43.240;27.880;2022-09-02T02:04:46;8.90;;;3.38;;
56269;SDS011;42176;43.240;27.880;2022-09-02T02:07:13;6.53;;;2.83;;
56269;SDS011;42176;43.240;27.880;2022-09-02T02:09:40;6.72;;;3.63;;
56269;SDS011;42176;43.240;27.880;2022-09-02T02:12:06;4.47;;;2.72;;
56269;SDS011;42176;43.240;27.880;2022-09-02T02:14:32;5.95;;;3.10;;
56269;SDS011;42176;43.240;27.880;2022-09-02T02:16:58;3.85;;;2.42;;
56269;SDS011;42176;43.240;27.880;2022-09-02T02:19:24;3.75;;;2.30;;
56269;SDS011;42176;43.240;27.880;2022-09-02T02:21:50;6.55;;;3.03;;
56269;SDS011;42176;43.240;27.880;2022-09-02T02:24:15;3.33;;;2.53;;
56269;SDS011;42176;43.240;27.880;2022-09-02T02:26:41;5.75;;;3.10;;
56269;SDS011;42176;43.240;27.880;2022-09-02T02:29:07;4.00;;;2.58;;
56269;SDS011;42176;43.240;27.880;2022-09-02T02:31:33;3.67;;;2.78;;
56269;SDS011;42176;43.240;27.880;2022-09-02T02:33:58;4.00;;;2.95;;
56269;SDS011;42176;43.240;27.880;2022-09-02T02:36:24;6.70;;;3.20;;
56269;SDS011;42176;43.240;27.880;2022-09-02T02:38:50;2.05;;;1.83;;
56269;SDS011;42176;43.240;27.880;2022-09-02T02:41:15;4.88;;;3.22;;
56269;SDS011;42176;43.240;27.880;2022-09-02T02:43:41;6.18;;;3.50;;
56269;SDS011;42176;43.240;27.880;2022-09-02T02:46:07;9.38;;;4.25;;
56269;SDS011;42176;43.240;27.880;2022-09-02T02:48:33;11.40;;;5.30;;
56269;SDS011;42176;43.240;27.880;2022-09-02T02:51:00;6.28;;;3.35;;
56269;SDS011;42176;43.240;27.880;2022-09-02T02:53:26;6.80;;;4.40;;
56269;SDS011;42176;43.240;27.880;2022-09-02T02:55:53;4.95;;;3.20;;
56269;SDS011;42176;43.240;27.880;2022-09-02T02:58:19;3.92;;;2.70;;
56269;SDS011;42176;43.240;27.880;2022-09-02T03:00:45;6.47;;;2.95;;
56269;SDS011;42176;43.240;27.880;2022-09-02T03:03:11;4.68;;;3.53;;
56269;SDS011;42176;43.240;27.880;2022-09-02T03:05:37;3.13;;;2.45;;
56269;SDS011;42176;43.240;27.880;2022-09-02T03:08:04;6.15;;;3.10;;
56269;SDS011;42176;43.240;27.880;2022-09-02T03:10:31;6.43;;;4.32;;
56269;SDS011;42176;43.240;27.880;2022-09-02T03:13:00;5.55;;;3.08;;
56269;SDS011;42176;43.240;27.880;2022-09-02T03:15:27;5.85;;;3.33;;
56269;SDS011;42176;43.240;27.880;2022-09-02T03:17:54;6.90;;;2.97;;
56269;SDS011;42176;43.240;27.880;2022-09-02T03:20:20;4.60;;;2.50;;
56269;SDS011;42176;43.240;27.880;2022-09-02T03:22:47;6.43;;;2.90;;
56269;SDS011;42176;43.240;27.880;2022-09-02T03:25:16;8.38;;;3.38;;
56269;SDS011;42176;43.240;27.880;2022-09-02T03:27:44;8.15;;;3.63;;
56269;SDS011;42176;43.240;27.880;2022-09-02T03:30:11;4.85;;;2.60;;
56269;SDS011;42176;43.240;27.880;2022-09-02T03:32:42;7.05;;;2.97;;
56269;SDS011;42176;43.240;27.880;2022-09-02T03:35:08;9.25;;;3.00;;
56269;SDS011;42176;43.240;27.880;2022-09-02T03:37:36;5.00;;;3.58;;
56269;SDS011;42176;43.240;27.880;2022-09-02T03:40:02;6.50;;;3.50;;
56269;SDS011;42176;43.240;27.880;2022-09-02T03:42:30;5.00;;;2.40;;
56269;SDS011;42176;43.240;27.880;2022-09-02T03:44:56;7.65;;;2.80;;
56269;SDS011;42176;43.240;27.880;2022-09-02T03:47:22;3.13;;;2.33;;
56269;SDS011;42176;43.240;27.880;2022-09-02T03:49:48;10.65;;;2.67;;
56269;SDS011;42176;43.240;27.880;2022-09-02T03:52:14;4.47;;;3.00;;
56269;SDS011;42176;43.240;27.880;2022-09-02T03:54:40;3.85;;;3.17;;
56269;SDS011;42176;43.240;27.880;2022-09-02T03:57:05;7.43;;;2.70;;
56269;SDS011;42176;43.240;27.880;2022-09-02T03:59:31;6.95;;;2.42;;
56269;SDS011;42176;43.240;27.880;2022-09-02T04:01:56;4.45;;;2.88;;
56269;SDS011;42176;43.240;27.880;2022-09-02T04:04:22;5.07;;;2.75;;
56269;SDS011;42176;43.240;27.880;2022-09-02T04:06:48;11.65;;;3.28;;
56269;SDS011;42176;43.240;27.880;2022-09-02T04:09:14;6.13;;;2.78;;
56269;SDS011;42176;43.240;27.880;2022-09-02T04:11:39;5.28;;;2.85;;
56269;SDS011;42176;43.240;27.880;2022-09-02T04:14:08;5.63;;;2.30;;
56269;SDS011;42176;43.240;27.880;2022-09-02T04:16:34;4.55;;;2.60;;
56269;SDS011;42176;43.240;27.880;2022-09-02T04:19:00;6.03;;;2.70;;
56269;SDS011;42176;43.240;27.880;2022-09-02T04:21:27;11.25;;;3.40;;
56269;SDS011;42176;43.240;27.880;2022-09-02T04:23:54;3.95;;;2.63;;
56269;SDS011;42176;43.240;27.880;2022-09-02T04:26:20;4.88;;;2.70;;
56269;SDS011;42176;43.240;27.880;2022-09-02T04:28:47;5.93;;;2.67;;
56269;SDS011;42176;43.240;27.880;2022-09-02T04:31:15;8.00;;;2.97;;
56269;SDS011;42176;43.240;27.880;2022-09-02T04:33:43;5.28;;;2.83;;
56269;SDS011;42176;43.240;27.880;2022-09-02T04:36:10;5.90;;;2.80;;
56269;SDS011;42176;43.240;27.880;2022-09-02T04:38:38;15.20;;;2.65;;
56269;SDS011;42176;43.240;27.880;2022-09-02T04:41:11;7.78;;;2.60;;
56269;SDS011;42176;43.240;27.880;2022-09-02T04:43:38;6.78;;;2.53;;
56269;SDS011;42176;43.240;27.880;2022-09-02T04:46:06;8.98;;;2.60;;
56269;SDS011;42176;43.240;27.880;2022-09-02T04:48:33;7.93;;;3.15;;
56269;SDS011;42176;43.240;27.880;2022-09-02T04:51:07;4.82;;;2.97;;
56269;SDS011;42176;43.240;27.880;2022-09-02T04:53:35;6.18;;;2.47;;
56269;SDS011;42176;43.240;27.880;2022-09-02T04:56:08;5.65;;;2.40;;
56269;SDS011;42176;43.240;27.880;2022-09-02T04:58:34;3.33;;;2.42;;
56269;SDS011;42176;43.240;27.880;2022-09-02T05:01:04;4.88;;;2.45;;
56269;SDS011;42176;43.240;27.880;2022-09-02T05:03:31;4.40;;;3.08;;
56269;SDS011;42176;43.240;27.880;2022-09-02T05:05:57;4.32;;;2.97;;
56269;SDS011;42176;43.240;27.880;2022-09-02T05:08:28;3.67;;;2.65;;
56269;SDS011;42176;43.240;27.880;2022-09-02T05:10:53;8.00;;;2.60;;
56269;SDS011;42176;43.240;27.880;2022-09-02T05:13:19;2.78;;;2.35;;
56269;SDS011;42176;43.240;27.880;2022-09-02T05:15:44;3.42;;;2.58;;
56269;SDS011;42176;43.240;27.880;2022-09-02T05:18:10;4.53;;;2.67;;
56269;SDS011;42176;43.240;27.880;2022-09-02T05:20:37;11.65;;;3.47;;
56269;SDS011;42176;43.240;27.880;2022-09-02T05:23:03;5.72;;;3.15;;
56269;SDS011;42176;43.240;27.880;2022-09-02T05:25:30;4.35;;;3.50;;
56269;SDS011;42176;43.240;27.880;2022-09-02T05:27:55;4.80;;;3.05;;
56269;SDS011;42176;43.240;27.880;2022-09-02T05:30:21;6.60;;;3.35;;
56269;SDS011;42176;43.240;27.880;2022-09-02T05:32:46;3.88;;;3.28;;
56269;SDS011;42176;43.240;27.880;2022-09-02T05:35:14;3.30;;;2.60;;
56269;SDS011;42176;43.240;27.880;2022-09-02T05:37:40;7.13;;;3.03;;
56269;SDS011;42176;43.240;27.880;2022-09-02T05:40:05;4.95;;;2.90;;
56269;SDS011;42176;43.240;27.880;2022-09-02T05:42:32;7.22;;;3.00;;
56269;SDS011;42176;43.240;27.880;2022-09-02T05:44:58;4.53;;;2.08;;
56269;SDS011;42176;43.240;27.880;2022-09-02T05:47:23;7.60;;;3.58;;
56269;SDS011;42176;43.240;27.880;2022-09-02T05:49:49;6.43;;;2.90;;
56269;SDS011;42176;43.240;27.880;2022-09-02T05:52:15;8.52;;;2.78;;
56269;SDS011;42176;43.240;27.880;2022-09-02T05:54:42;7.30;;;2.75;;
56269;SDS011;42176;43.240;27.880;2022-09-02T05:57:12;4.10;;;2.35;;
56269;SDS011;42176;43.240;27.880;2022-09-02T05:59:39;3.78;;;2.50;;
56269;SDS011;42176;43.240;27.880;2022-09-02T06:02:07;3.75;;;2.80;;
56269;SDS011;42176;43.240;27.880;2022-09-02T06:04:41;6.55;;;3.10;;
56269;SDS011;42176;43.240;27.880;2022-09-02T06:07:08;4.53;;;2.65;;
56269;SDS011;42176;43.240;27.880;2022-09-02T06:09:34;5.35;;;2.70;;
56269;SDS011;42176;43.240;27.880;2022-09-02T06:11:59;7.28;;;2.40;;
56269;SDS011;42176;43.240;27.880;2022-09-02T06:14:26;2.97;;;2.70;;
56269;SDS011;42176;43.240;27.880;2022-09-02T06:16:52;11.68;;;2.88;;
56269;SDS011;42176;43.240;27.880;2022-09-02T06:19:19;5.95;;;2.60;;
56269;SDS011;42176;43.240;27.880;2022-09-02T06:21:54;7.63;;;3.08;;
56269;SDS011;42176;43.240;27.880;2022-09-02T06:24:21;4.45;;;2.67;;
56269;SDS011;42176;43.240;27.880;2022-09-02T06:26:47;5.45;;;3.17;;
56269;SDS011;42176;43.240;27.880;2022-09-02T06:29:12;3.53;;;2.42;;
56269;SDS011;42176;43.240;27.880;2022-09-02T06:31:39;7.70;;;2.97;;
56269;SDS011;42176;43.240;27.880;2022-09-02T06:34:09;2.80;;;2.33;;
56269;SDS011;42176;43.240;27.880;2022-09-02T06:36:40;8.32;;;2.95;;
56269;SDS011;42176;43.240;27.880;2022-09-02T06:39:09;6.03;;;3.22;;
56269;SDS011;42176;43.240;27.880;2022-09-02T06:41:36;5.65;;;2.75;;
56269;SDS011;42176;43.240;27.880;2022-09-02T06:44:03;5.35;;;2.65;;
56269;SDS011;42176;43.240;27.880;2022-09-02T06:46:31;5.30;;;3.17;;
56269;SDS011;42176;43.240;27.880;2022-09-02T06:48:59;4.43;;;3.25;;
56269;SDS011;42176;43.240;27.880;2022-09-02T06:53:52;4.80;;;3.80;;
56269;SDS011;42176;43.240;27.880;2022-09-02T06:56:18;3.92;;;3.30;;
56269;SDS011;42176;43.240;27.880;2022-09-02T06:58:44;8.57;;;3.38;;
56269;SDS011;42176;43.240;27.880;2022-09-02T07:01:16;8.18;;;3.17;;
56269;SDS011;42176;43.240;27.880;2022-09-02T07:03:44;6.40;;;3.17;;
56269;SDS011;42176;43.240;27.880;2022-09-02T07:06:31;8.45;;;3.33;;
56269;SDS011;42176;43.240;27.880;2022-09-02T07:09:00;3.40;;;3.08;;
56269;SDS011;42176;43.240;27.880;2022-09-02T07:11:26;7.18;;;3.40;;
56269;SDS011;42176;43.240;27.880;2022-09-02T07:13:51;11.35;;;4.70;;
56269;SDS011;42176;43.240;27.880;2022-09-02T07:16:17;9.65;;;4.30;;
56269;SDS011;42176;43.240;27.880;2022-09-02T07:18:44;4.78;;;3.55;;
56269;SDS011;42176;43.240;27.880;2022-09-02T07:21:11;7.40;;;3.63;;
56269;SDS011;42176;43.240;27.880;2022-09-02T07:23:38;7.35;;;3.40;;
56269;SDS011;42176;43.240;27.880;2022-09-02T07:26:04;4.18;;;3.47;;
56269;SDS011;42176;43.240;27.880;2022-09-02T07:31:00;7.05;;;3.75;;
56269;SDS011;42176;43.240;27.880;2022-09-02T07:33:26;8.43;;;3.88;;
56269;SDS011;42176;43.240;27.880;2022-09-02T07:35:51;7.93;;;4.18;;
56269;SDS011;42176;43.240;27.880;2022-09-02T07:38:17;13.20;;;4.40;;
56269;SDS011;42176;43.240;27.880;2022-09-02T07:40:43;9.13;;;3.95;;
56269;SDS011;42176;43.240;27.880;2022-09-02T07:43:11;5.32;;;3.35;;
56269;SDS011;42176;43.240;27.880;2022-09-02T07:45:37;8.13;;;3.65;;
56269;SDS011;42176;43.240;27.880;2022-09-02T07:48:03;7.82;;;3.10;;
56269;SDS011;42176;43.240;27.880;2022-09-02T07:50:33;9.32;;;3.42;;
56269;SDS011;42176;43.240;27.880;2022-09-02T07:53:01;13.65;;;4.72;;
56269;SDS011;42176;43.240;27.880;2022-09-02T07:55:30;8.55;;;3.78;;
56269;SDS011;42176;43.240;27.880;2022-09-02T07:57:57;9.40;;;3.92;;
56269;SDS011;42176;43.240;27.880;2022-09-02T08:00:22;6.93;;;2.88;;
56269;SDS011;42176;43.240;27.880;2022-09-02T08:02:51;4.50;;;3.25;;
56269;SDS011;42176;43.240;27.880;2022-09-02T08:05:18;7.10;;;3.42;;
56269;SDS011;42176;43.240;27.880;2022-09-02T08:07:47;5.30;;;3.28;;
56269;SDS011;42176;43.240;27.880;2022-09-02T08:10:13;4.72;;;3.30;;
56269;SDS011;42176;43.240;27.880;2022-09-02T08:12:40;6.05;;;2.97;;
56269;SDS011;42176;43.240;27.880;2022-09-02T08:15:08;5.30;;;2.80;;
56269;SDS011;42176;43.240;27.880;2022-09-02T08:17:35;5.78;;;2.60;;
56269;SDS011;42176;43.240;27.880;2022-09-02T08:20:01;5.15;;;2.65;;
56269;SDS011;42176;43.240;27.880;2022-09-02T08:22:32;5.22;;;3.00;;
56269;SDS011;42176;43.240;27.880;2022-09-02T08:24:59;8.70;;;2.80;;
56269;SDS011;42176;43.240;27.880;2022-09-02T08:27:24;7.68;;;2.90;;
56269;SDS011;42176;43.240;27.880;2022-09-02T08:29:51;4.88;;;2.92;;
56269;SDS011;42176;43.240;27.880;2022-09-02T08:32:17;7.45;;;3.80;;
56269;SDS011;42176;43.240;27.880;2022-09-02T08:34:43;14.75;;;3.22;;
56269;SDS011;42176;43.240;27.880;2022-09-02T08:37:08;9.88;;;2.83;;
56269;SDS011;42176;43.240;27.880;2022-09-02T08:39:33;5.78;;;3.55;;
56269;SDS011;42176;43.240;27.880;2022-09-02T08:50:44;5.40;;;3.33;;
56269;SDS011;42176;43.240;27.880;2022-09-02T08:56:04;8.18;;;3.35;;
56269;SDS011;42176;43.240;27.880;2022-09-02T08:58:37;7.32;;;3.53;;
56269;SDS011;42176;43.240;27.880;2022-09-02T09:06:19;8.18;;;3.85;;
56269;SDS011;42176;43.240;27.880;2022-09-02T09:22:17;5.22;;;3.67;;
56269;SDS011;42176;43.240;27.880;2022-09-02T09:24:45;14.43;;;4.00;;
56269;SDS011;42176;43.240;27.880;2022-09-02T09:27:12;7.93;;;4.30;;
56269;SDS011;42176;43.240;27.880;2022-09-02T09:29:39;7.32;;;3.70;;
56269;SDS011;42176;43.240;27.880;2022-09-02T09:32:07;9.40;;;4.07;;
56269;SDS011;42176;43.240;27.880;2022-09-02T09:35:04;10.40;;;4.68;;
56269;SDS011;42176;43.240;27.880;2022-09-02T09:42:46;6.82;;;4.00;;
56269;SDS011;42176;43.240;27.880;2022-09-02T09:45:40;10.88;;;4.10;;
56269;SDS011;42176;43.240;27.880;2022-09-02T09:50:42;9.80;;;4.30;;
56269;SDS011;42176;43.240;27.880;2022-09-02T09:53:22;6.05;;;3.80;;
56269;SDS011;42176;43.240;27.880;2022-09-02T09:56:03;7.57;;;3.67;;
56269;SDS011;42176;43.240;27.880;2022-09-02T09:58:33;7.28;;;2.90;;
56269;SDS011;42176;43.240;27.880;2022-09-02T10:01:11;8.90;;;4.47;;
56269;SDS011;42176;43.240;27.880;2022-09-02T10:03:51;12.27;;;4.93;;
56269;SDS011;42176;43.240;27.880;2022-09-02T10:06:22;6.25;;;4.28;;
56269;SDS011;42176;43.240;27.880;2022-09-02T10:09:04;8.93;;;4.07;;
56269;SDS011;42176;43.240;27.880;2022-09-02T10:12:30;7.95;;;3.95;;
56269;SDS011;42176;43.240;27.880;2022-09-02T10:14:54;8.38;;;4.13;;
56269;SDS011;42176;43.240;27.880;2022-09-02T10:23:00;5.88;;;4.22;;
56269;SDS011;42176;43.240;27.880;2022-09-02T10:33:29;7.40;;;4.68;;
56269;SDS011;42176;43.240;27.880;2022-09-02T10:38:39;7.35;;;3.90;;
56269;SDS011;42176;43.240;27.880;2022-09-02T10:46:40;6.38;;;3.90;;
56269;SDS011;42176;43.240;27.880;2022-09-02T10:49:13;8.85;;;5.15;;
56269;SDS011;42176;43.240;27.880;2022-09-02T10:52:05;7.13;;;4.70;;
56269;SDS011;42176;43.240;27.880;2022-09-02T10:54:54;4.72;;;3.25;;
56269;SDS011;42176;43.240;27.880;2022-09-02T10:57:59;5.32;;;3.72;;
56269;SDS011;42176;43.240;27.880;2022-09-02T11:00:32;7.38;;;3.63;;
56269;SDS011;42176;43.240;27.880;2022-09-02T11:05:46;5.22;;;3.95;;
56269;SDS011;42176;43.240;27.880;2022-09-02T11:08:16;15.27;;;4.70;;
56269;SDS011;42176;43.240;27.880;2022-09-02T11:14:05;8.07;;;3.97;;
56269;SDS011;42176;43.240;27.880;2022-09-02T11:18:59;6.88;;;4.25;;
56269;SDS011;42176;43.240;27.880;2022-09-02T11:24:32;7.38;;;3.63;;
56269;SDS011;42176;43.240;27.880;2022-09-02T11:30:55;10.25;;;4.28;;
56269;SDS011;42176;43.240;27.880;2022-09-02T11:33:08;13.40;;;4.63;;
56269;SDS011;42176;43.240;27.880;2022-09-02T11:35:39;12.60;;;4.88;;
56269;SDS011;42176;43.240;27.880;2022-09-02T11:43:25;11.38;;;4.50;;
56269;SDS011;42176;43.240;27.880;2022-09-02T11:54:19;11.50;;;3.22;;
56269;SDS011;42176;43.240;27.880;2022-09-02T11:56:49;8.18;;;4.32;;
56269;SDS011;42176;43.240;27.880;2022-09-02T12:02:12;8.65;;;3.80;;
56269;SDS011;42176;43.240;27.880;2022-09-02T12:08:12;6.57;;;3.92;;
56269;SDS011;42176;43.240;27.880;2022-09-02T12:11:01;13.75;;;3.53;;
56269;SDS011;42176;43.240;27.880;2022-09-02T12:13:31;5.05;;;3.00;;
56269;SDS011;42176;43.240;27.880;2022-09-02T12:21:25;9.02;;;3.40;;
56269;SDS011;42176;43.240;27.880;2022-09-02T12:26:23;4.72;;;3.13;;
56269;SDS011;42176;43.240;27.880;2022-09-02T12:28:52;7.03;;;3.80;;
56269;SDS011;42176;43.240;27.880;2022-09-02T12:31:43;6.63;;;3.10;;
56269;SDS011;42176;43.240;27.880;2022-09-02T12:44:27;5.20;;;2.75;;
56269;SDS011;42176;43.240;27.880;2022-09-02T12:47:41;9.55;;;3.53;;
56269;SDS011;42176;43.240;27.880;2022-09-02T12:55:09;6.88;;;3.55;;
56269;SDS011;42176;43.240;27.880;2022-09-02T12:57:41;5.20;;;2.80;;
56269;SDS011;42176;43.240;27.880;2022-09-02T13:19:47;7.25;;;2.65;;
56269;SDS011;42176;43.240;27.880;2022-09-02T13:22:43;1.45;;;1.33;;
56269;SDS011;42176;43.240;27.880;2022-09-02T13:31:27;3.10;;;2.08;;
56269;SDS011;42176;43.240;27.880;2022-09-02T13:37:02;2.42;;;1.90;;
56269;SDS011;42176;43.240;27.880;2022-09-02T13:39:25;1.65;;;1.55;;
56269;SDS011;42176;43.240;27.880;2022-09-02T13:41:51;2.10;;;1.30;;
56269;SDS011;42176;43.240;27.880;2022-09-02T13:44:24;2.78;;;1.63;;
56269;SDS011;42176;43.240;27.880;2022-09-02T13:47:02;1.38;;;1.27;;
56269;SDS011;42176;43.240;27.880;2022-09-02T13:49:41;2.90;;;1.70;;
56269;SDS011;42176;43.240;27.880;2022-09-02T13:52:15;4.60;;;2.47;;
56269;SDS011;42176;43.240;27.880;2022-09-02T13:54:44;3.47;;;2.20;;
56269;SDS011;42176;43.240;27.880;2022-09-02T13:57:17;3.72;;;2.05;;
56269;SDS011;42176;43.240;27.880;2022-09-02T13:59:52;4.32;;;2.80;;
56269;SDS011;42176;43.240;27.880;2022-09-02T14:02:23;8.03;;;3.17;;
56269;SDS011;42176;43.240;27.880;2022-09-02T14:04:55;8.25;;;3.20;;
56269;SDS011;42176;43.240;27.880;2022-09-02T14:07:45;9.07;;;3.33;;
56269;SDS011;42176;43.240;27.880;2022-09-02T14:10:17;5.10;;;2.75;;
56269;SDS011;42176;43.240;27.880;2022-09-02T14:12:46;7.43;;;3.78;;
56269;SDS011;42176;43.240;27.880;2022-09-02T14:15:14;5.80;;;3.53;;
56269;SDS011;42176;43.240;27.880;2022-09-02T14:17:40;5.57;;;4.25;;
56269;SDS011;42176;43.240;27.880;2022-09-02T14:20:15;5.75;;;3.97;;
56269;SDS011;42176;43.240;27.880;2022-09-02T14:22:41;7.00;;;4.35;;
56269;SDS011;42176;43.240;27.880;2022-09-02T14:25:14;7.93;;;4.10;;
56269;SDS011;42176;43.240;27.880;2022-09-02T14:27:50;6.75;;;3.55;;
56269;SDS011;42176;43.240;27.880;2022-09-02T14:35:56;8.45;;;4.68;;
56269;SDS011;42176;43.240;27.880;2022-09-02T14:38:27;9.25;;;4.28;;
56269;SDS011;42176;43.240;27.880;2022-09-02T14:41:01;11.90;;;4.63;;
56269;SDS011;42176;43.240;27.880;2022-09-02T14:46:23;7.43;;;3.78;;
56269;SDS011;42176;43.240;27.880;2022-09-02T14:49:05;5.72;;;3.92;;
56269;SDS011;42176;43.240;27.880;2022-09-02T14:51:44;8.52;;;3.15;;
56269;SDS011;42176;43.240;27.880;2022-09-02T14:59:45;4.30;;;2.63;;
56269;SDS011;42176;43.240;27.880;2022-09-02T15:04:49;3.30;;;2.15;;
56269;SDS011;42176;43.240;27.880;2022-09-02T15:07:14;8.15;;;3.13;;
56269;SDS011;42176;43.240;27.880;2022-09-02T15:09:40;7.03;;;3.03;;
56269;SDS011;42176;43.240;27.880;2022-09-02T15:12:08;4.70;;;2.50;;
56269;SDS011;42176;43.240;27.880;2022-09-02T15:14:34;7.70;;;2.60;;
56269;SDS011;42176;43.240;27.880;2022-09-02T15:17:00;4.32;;;2.33;;
56269;SDS011;42176;43.240;27.880;2022-09-02T15:19:27;3.30;;;2.22;;
56269;SDS011;42176;43.240;27.880;2022-09-02T15:21:52;3.00;;;2.00;;
56269;SDS011;42176;43.240;27.880;2022-09-02T15:24:18;5.43;;;2.03;;
56269;SDS011;42176;43.240;27.880;2022-09-02T15:26:43;7.80;;;2.13;;
56269;SDS011;42176;43.240;27.880;2022-09-02T15:29:09;4.50;;;1.65;;
56269;SDS011;42176;43.240;27.880;2022-09-02T15:31:34;7.82;;;1.67;;
56269;SDS011;42176;43.240;27.880;2022-09-02T15:34:00;8.32;;;1.77;;
56269;SDS011;42176;43.240;27.880;2022-09-02T15:36:27;7.20;;;2.00;;
56269;SDS011;42176;43.240;27.880;2022-09-02T15:38:55;6.45;;;2.25;;
56269;SDS011;42176;43.240;27.880;2022-09-02T15:41:22;7.70;;;3.03;;
56269;SDS011;42176;43.240;27.880;2022-09-02T15:43:48;7.95;;;4.95;;
56269;SDS011;42176;43.240;27.880;2022-09-02T15:46:35;6.10;;;3.10;;
56269;SDS011;42176;43.240;27.880;2022-09-02T15:49:04;7.00;;;3.83;;
56269;SDS011;42176;43.240;27.880;2022-09-02T15:51:32;8.02;;;3.67;;
56269;SDS011;42176;43.240;27.880;2022-09-02T15:54:02;5.70;;;3.03;;
56269;SDS011;42176;43.240;27.880;2022-09-02T15:56:30;7.75;;;2.25;;
56269;SDS011;42176;43.240;27.880;2022-09-02T15:58:59;3.08;;;1.80;;
56269;SDS011;42176;43.240;27.880;2022-09-02T16:01:26;5.50;;;2.05;;
56269;SDS011;42176;43.240;27.880;2022-09-02T16:03:54;4.75;;;2.40;;
56269;SDS011;42176;43.240;27.880;2022-09-02T16:06:20;5.03;;;2.47;;
56269;SDS011;42176;43.240;27.880;2022-09-02T16:08:45;3.97;;;2.40;;
56269;SDS011;42176;43.240;27.880;2022-09-02T16:11:11;5.07;;;2.70;;
56269;SDS011;42176;43.240;27.880;2022-09-02T16:13:42;7.78;;;2.83;;
56269;SDS011;42176;43.240;27.880;2022-09-02T16:16:09;14.27;;;3.42;;
56269;SDS011;42176;43.240;27.880;2022-09-02T16:18:36;7.22;;;2.88;;
56269;SDS011;42176;43.240;27.880;2022-09-02T16:21:04;8.73;;;2.90;;
56269;SDS011;42176;43.240;27.880;2022-09-02T16:23:32;8.50;;;3.00;;
56269;SDS011;42176;43.240;27.880;2022-09-02T16:26:32;3.90;;;1.45;;
56269;SDS011;42176;43.240;27.880;2022-09-02T16:28:52;9.13;;;2.28;;
56269;SDS011;42176;43.240;27.880;2022-09-02T16:31:20;4.10;;;2.35;;
56269;SDS011;42176;43.240;27.880;2022-09-02T16:33:53;3.92;;;1.50;;
56269;SDS011;42176;43.240;27.880;2022-09-02T16:36:30;5.38;;;1.60;;
56269;SDS011;42176;43.240;27.880;2022-09-02T16:38:56;8.73;;;2.08;;
56269;SDS011;42176;43.240;27.880;2022-09-02T16:41:28;2.75;;;1.90;;
56269;SDS011;42176;43.240;27.880;2022-09-02T16:44:06;10.05;;;2.42;;
56269;SDS011;42176;43.240;27.880;2022-09-02T16:46:33;9.18;;;2.47;;
56269;SDS011;42176;43.240;27.880;2022-09-02T16:49:00;11.90;;;3.85;;
56269;SDS011;42176;43.240;27.880;2022-09-02T16:51:26;8.95;;;4.43;;
56269;SDS011;42176;43.240;27.880;2022-09-02T16:53:54;21.42;;;5.95;;
56269;SDS011;42176;43.240;27.880;2022-09-02T16:56:21;22.88;;;7.35;;
56269;SDS011;42176;43.240;27.880;2022-09-02T16:58:47;10.20;;;5.30;;
56269;SDS011;42176;43.240;27.880;2022-09-02T17:01:13;13.00;;;8.60;;
56269;SDS011;42176;43.240;27.880;2022-09-02T17:03:39;19.00;;;8.52;;
56269;SDS011;42176;43.240;27.880;2022-09-02T17:06:05;13.73;;;6.85;;
56269;SDS011;42176;43.240;27.880;2022-09-02T17:08:31;12.02;;;6.38;;
56269;SDS011;42176;43.240;27.880;2022-09-02T17:14:05;9.55;;;4.78;;
56269;SDS011;42176;43.240;27.880;2022-09-02T17:16:34;13.43;;;5.75;;
56269;SDS011;42176;43.240;27.880;2022-09-02T17:19:01;12.18;;;5.25;;
56269;SDS011;42176;43.240;27.880;2022-09-02T17:21:28;11.93;;;5.55;;
56269;SDS011;42176;43.240;27.880;2022-09-02T17:23:54;15.68;;;5.38;;
56269;SDS011;42176;43.240;27.880;2022-09-02T17:26:22;13.45;;;5.63;;
56269;SDS011;42176;43.240;27.880;2022-09-02T17:28:50;14.00;;;5.97;;
56269;SDS011;42176;43.240;27.880;2022-09-02T17:31:37;16.17;;;5.70;;
56269;SDS011;42176;43.240;27.880;2022-09-02T17:34:04;9.70;;;5.72;;
56269;SDS011;42176;43.240;27.880;2022-09-02T17:36:32;10.35;;;5.35;;